Terminal Aerodrome Forecast
Issued by NWS

Home | Current Version | Previous Version | Text Only | Print | Product List | Glossary On
Versions: 1 2 3 4 5 6 7 8 9 10 11 12 13 14 15
000
FTUS42 KJAX 231729
TAFCRG
TAF
KCRG 231729Z 2318/2418 06012G20KT P6SM VCSH BKN035 OVC050
     FM232300 05009G15KT P6SM SCT025 BKN070
     FM241500 10012G18KT P6SM BKN040=

USA.gov is the U.S. government's official web portal to all federal, state and local government web resources and services.